createdAt,value
2023-05-19T00:00:31.369Z,10.20
2023-05-19T00:05:41.118Z,10.20
2023-05-19T00:10:45.246Z,10.22
2023-05-19T00:15:49.561Z,10.36
2023-05-19T00:20:53.615Z,10.46
2023-05-19T00:25:57.278Z,10.39
2023-05-19T00:31:02.375Z,10.38
2023-05-19T00:36:07.296Z,10.37
2023-05-19T00:41:11.459Z,10.27
2023-05-19T00:46:15.426Z,10.22
2023-05-19T00:51:19.333Z,10.27
2023-05-19T00:56:23.438Z,10.26
2023-05-19T01:01:28.234Z,10.27
2023-05-19T01:06:31.846Z,10.38
2023-05-19T01:11:35.849Z,10.34
2023-05-19T01:16:44.315Z,10.29
2023-05-19T01:22:23.168Z,10.17
2023-05-19T01:27:50.222Z,10.40
2023-05-19T01:33:03.027Z,10.38
2023-05-19T01:38:09.767Z,10.44
2023-05-19T01:43:18.300Z,10.42
2023-05-19T01:48:23.756Z,10.46
2023-05-19T01:53:27.437Z,10.34
2023-05-19T01:58:47.782Z,10.43
2023-05-19T02:04:06.068Z,10.32
2023-05-19T02:09:16.459Z,10.35
2023-05-19T02:14:46.072Z,10.29
2023-05-19T02:19:50.142Z,10.23
2023-05-19T02:24:56.726Z,10.25
2023-05-19T02:30:00.309Z,10.18
2023-05-19T02:35:04.386Z,10.22
2023-05-19T02:40:08.740Z,10.26
2023-05-19T02:45:12.464Z,10.25
2023-05-19T02:50:18.784Z,10.19
2023-05-19T02:55:22.236Z,10.20
2023-05-19T03:00:26.394Z,10.15
2023-05-19T03:05:33.239Z,10.11
2023-05-19T03:10:37.118Z,10.14
2023-05-19T03:15:40.748Z,9.99
2023-05-19T03:20:44.964Z,10.01
2023-05-19T03:25:48.154Z,10.03
2023-05-19T03:30:52.368Z,10.15
2023-05-19T03:35:59.625Z,9.91
2023-05-19T03:41:06.294Z,9.76
2023-05-19T03:46:11.047Z,9.99
2023-05-19T03:51:30.910Z,9.99
2023-05-19T03:56:54.484Z,9.62
2023-05-19T04:01:58.912Z,10.04
2023-05-19T04:07:02.994Z,10.00
2023-05-19T04:12:07.062Z,10.26
2023-05-19T04:17:10.440Z,10.45
2023-05-19T04:22:14.161Z,10.49
2023-05-19T04:27:19.034Z,10.73
2023-05-19T04:32:23.431Z,11.01
2023-05-19T04:37:28.000Z,11.19
2023-05-19T04:42:33.459Z,11.39
2023-05-19T04:47:39.100Z,11.76
2023-05-19T04:52:42.972Z,12.09
2023-05-19T04:57:47.430Z,12.12
2023-05-19T05:02:51.768Z,12.50
2023-05-19T05:07:57.735Z,12.78
2023-05-19T05:13:04.076Z,12.87
2023-05-19T05:18:09.258Z,13.18
2023-05-19T05:23:17.089Z,13.46
2023-05-19T05:28:23.608Z,13.71
2023-05-19T05:33:27.612Z,14.00
2023-05-19T05:38:32.534Z,14.16
2023-05-19T05:43:36.897Z,14.23
2023-05-19T05:48:43.296Z,14.44
2023-05-19T05:53:53.245Z,14.72
2023-05-19T05:58:59.676Z,14.94
2023-05-19T06:04:03.603Z,15.14
2023-05-19T06:09:08.357Z,15.05
2023-05-19T06:14:13.794Z,15.50
2023-05-19T06:19:35.826Z,17.98
2023-05-19T06:24:41.599Z,18.63
2023-05-19T06:29:46.695Z,19.28
2023-05-19T06:34:54.437Z,19.72
2023-05-19T06:39:59.085Z,20.35
2023-05-19T06:45:03.896Z,20.31
2023-05-19T06:50:07.989Z,20.10
2023-05-19T06:55:13.571Z,19.70
2023-05-19T07:00:18.832Z,19.66
2023-05-19T07:05:25.360Z,19.11
2023-05-19T07:10:35.255Z,18.95
2023-05-19T07:15:43.494Z,19.10
2023-05-19T07:20:47.167Z,19.10
2023-05-19T07:25:56.742Z,18.73
2023-05-19T07:31:01.272Z,18.21
2023-05-19T07:36:05.333Z,17.75
2023-05-19T07:41:09.170Z,17.51
2023-05-19T07:46:12.918Z,17.20
2023-05-19T07:51:16.986Z,17.01
2023-05-19T07:56:22.093Z,16.97
2023-05-19T08:01:26.736Z,17.13
2023-05-19T08:06:30.944Z,17.51
2023-05-19T08:11:34.586Z,17.81
2023-05-19T08:16:37.929Z,17.79
2023-05-19T08:21:42.876Z,18.13
2023-05-19T08:26:46.698Z,18.51
2023-05-19T08:31:50.925Z,18.43
2023-05-19T08:36:58.116Z,19.24
2023-05-19T08:42:02.779Z,19.61
2023-05-19T08:47:08.403Z,20.24
2023-05-19T08:52:21.235Z,20.38
2023-05-19T08:57:29.872Z,20.42
2023-05-19T09:02:34.420Z,20.30
2023-05-19T09:07:38.729Z,20.21
2023-05-19T09:12:46.813Z,20.70
2023-05-19T09:17:50.485Z,21.56
2023-05-19T09:22:54.315Z,22.12
2023-05-19T09:27:58.144Z,21.33
2023-05-19T09:33:01.786Z,19.97
2023-05-19T09:38:06.644Z,19.68
2023-05-19T09:43:10.979Z,20.45
2023-05-19T09:48:16.904Z,20.73
2023-05-19T09:53:22.826Z,19.52
2023-05-19T09:58:27.452Z,18.73
2023-05-19T10:03:33.840Z,18.52
2023-05-19T10:08:40.360Z,18.33
2023-05-19T10:13:48.051Z,19.03
2023-05-19T10:18:56.033Z,20.07
2023-05-19T10:24:00.809Z,20.35
2023-05-19T10:29:29.287Z,21.47
2023-05-19T10:35:05.655Z,21.82
2023-05-19T10:40:14.383Z,21.81
2023-05-19T10:45:24.772Z,20.31
2023-05-19T10:50:29.936Z,19.95
2023-05-19T10:55:53.706Z,19.53
2023-05-19T11:01:08.326Z,18.86
2023-05-19T11:06:36.539Z,18.52
2023-05-19T11:11:50.208Z,18.19
2023-05-19T11:16:59.154Z,18.00
2023-05-19T11:22:14.091Z,17.63
2023-05-19T11:27:37.860Z,17.33
2023-05-19T11:32:46.849Z,16.70
2023-05-19T11:37:52.973Z,16.45
2023-05-19T11:42:56.807Z,16.57
2023-05-19T11:48:03.017Z,16.53
2023-05-19T11:53:06.474Z,17.22
2023-05-19T11:58:10.048Z,16.61
2023-05-19T12:03:13.984Z,16.77
2023-05-19T12:08:21.893Z,17.61
2023-05-19T12:13:26.457Z,17.51
2023-05-19T12:18:34.675Z,17.23
2023-05-19T12:23:39.650Z,17.00
2023-05-19T12:28:46.354Z,17.02
2023-05-19T12:34:08.568Z,17.24
2023-05-19T12:39:13.526Z,17.23
2023-05-19T12:44:18.921Z,17.19
2023-05-19T12:49:22.943Z,17.19
2023-05-19T12:54:27.898Z,16.72
2023-05-19T12:59:38.904Z,16.46
2023-05-19T13:05:01.761Z,16.20
2023-05-19T13:10:06.886Z,15.96
2023-05-19T13:15:10.932Z,15.49
2023-05-19T13:20:15.777Z,15.50
2023-05-19T13:25:19.182Z,15.59
2023-05-19T13:30:24.518Z,15.86
2023-05-19T13:35:28.797Z,16.58
2023-05-19T13:40:35.200Z,17.75
2023-05-19T13:45:39.799Z,17.81
2023-05-19T13:50:43.553Z,17.60
2023-05-19T13:55:48.653Z,17.26
2023-05-19T14:00:54.993Z,17.21
2023-05-19T14:05:58.935Z,17.09
2023-05-19T14:11:02.923Z,17.23
2023-05-19T14:16:07.344Z,16.86
2023-05-19T14:21:11.040Z,16.60
2023-05-19T14:26:15.376Z,16.63
2023-05-19T14:31:19.265Z,17.09
2023-05-19T14:36:23.295Z,18.28
2023-05-19T14:41:26.633Z,18.39
2023-05-19T14:46:30.528Z,18.19
2023-05-19T14:51:33.939Z,18.19
2023-05-19T14:56:37.665Z,17.65
2023-05-19T15:01:41.974Z,17.49
2023-05-19T15:06:48.153Z,17.33
2023-05-19T15:11:56.327Z,17.72
2023-05-19T15:17:00.320Z,18.12
2023-05-19T15:22:04.502Z,17.25
2023-05-19T15:27:09.148Z,16.69
2023-05-19T15:32:13.031Z,16.23
2023-05-19T15:37:17.255Z,15.92
2023-05-19T15:42:21.125Z,15.49
2023-05-19T15:47:24.800Z,15.06
2023-05-19T15:52:28.329Z,14.80
2023-05-19T15:57:32.281Z,14.45
2023-05-19T16:02:36.254Z,14.26
2023-05-19T16:07:42.342Z,14.11
2023-05-19T16:12:46.569Z,13.89
2023-05-19T16:17:50.622Z,13.82
2023-05-19T16:22:55.859Z,14.16
2023-05-19T16:27:59.439Z,14.24
2023-05-19T16:33:02.786Z,13.85
2023-05-19T16:38:06.915Z,13.69
2023-05-19T16:43:12.147Z,13.83
2023-05-19T16:48:16.200Z,13.83
2023-05-19T16:53:20.371Z,13.36
2023-05-19T16:58:24.174Z,13.26
2023-05-19T17:03:28.014Z,13.04
2023-05-19T17:08:31.734Z,12.83
2023-05-19T17:13:36.853Z,12.73
2023-05-19T17:18:41.127Z,12.84
2023-05-19T17:23:44.889Z,12.89
2023-05-19T17:28:48.925Z,12.98
2023-05-19T17:33:52.513Z,13.08
2023-05-19T17:45:12.178Z,12.84
2023-05-19T17:50:15.609Z,12.87
2023-05-19T17:55:20.363Z,12.70
2023-05-19T18:00:25.382Z,12.58
2023-05-19T18:05:29.268Z,12.38
2023-05-19T18:10:37.964Z,12.38
2023-05-19T18:15:42.305Z,12.45
2023-05-19T18:20:45.986Z,12.26
2023-05-19T18:25:51.960Z,12.49
2023-05-19T18:31:06.419Z,12.64
2023-05-19T18:36:09.601Z,12.58
2023-05-19T18:41:14.303Z,12.60
2023-05-19T18:46:21.064Z,12.80
2023-05-19T18:51:24.227Z,12.91
2023-05-19T18:56:31.396Z,12.95
2023-05-19T19:01:35.350Z,12.92
2023-05-19T19:06:38.939Z,13.11
2023-05-19T19:11:42.640Z,13.07
2023-05-19T19:16:46.778Z,13.10
2023-05-19T19:21:50.311Z,13.23
2023-05-19T19:26:53.874Z,13.24
2023-05-19T19:31:57.469Z,13.26
2023-05-19T19:37:01.208Z,13.41
2023-05-19T19:42:05.175Z,13.31
2023-05-19T19:47:09.092Z,13.44
2023-05-19T19:52:12.881Z,13.43
2023-05-19T19:57:19.689Z,13.48
2023-05-19T20:02:23.270Z,13.45
2023-05-19T20:07:27.461Z,13.32
2023-05-19T20:12:30.969Z,13.36
2023-05-19T20:17:35.029Z,13.53
2023-05-19T20:22:39.961Z,13.47
2023-05-19T20:27:43.120Z,13.53
2023-05-19T20:32:47.005Z,13.42
2023-05-19T20:37:50.564Z,13.41
2023-05-19T20:42:54.090Z,13.42
2023-05-19T20:47:59.708Z,13.34
2023-05-19T20:53:03.575Z,13.27
2023-05-19T20:58:06.745Z,13.18
2023-05-19T21:03:11.865Z,13.32
2023-05-19T21:08:14.997Z,13.34
2023-05-19T21:13:19.000Z,13.24
2023-05-19T21:18:22.713Z,13.39
2023-05-19T21:23:26.304Z,13.37
2023-05-19T21:28:29.844Z,13.28
2023-05-19T21:33:33.313Z,13.58
2023-05-19T21:38:37.059Z,13.39
2023-05-19T21:43:43.209Z,13.30
2023-05-19T21:48:47.729Z,13.42
2023-05-19T21:53:51.101Z,13.65
2023-05-19T21:58:54.159Z,13.62
2023-05-19T22:03:57.980Z,13.71
2023-05-19T22:09:02.895Z,13.86
2023-05-19T22:14:07.127Z,14.08
2023-05-19T22:19:11.583Z,13.96
2023-05-19T22:24:15.360Z,14.11
2023-05-19T22:29:18.923Z,14.02
2023-05-19T22:34:22.412Z,14.23
2023-05-19T22:39:25.987Z,14.37
2023-05-19T22:44:29.826Z,14.32
2023-05-19T22:49:33.078Z,14.37
2023-05-19T22:54:36.907Z,14.32
2023-05-19T22:59:41.530Z,14.71
2023-05-19T23:04:44.985Z,14.26
2023-05-19T23:09:49.101Z,14.48
2023-05-19T23:14:53.706Z,14.44
2023-05-19T23:19:57.340Z,14.70
2023-05-19T23:25:02.236Z,14.89
2023-05-19T23:30:06.312Z,14.89
2023-05-19T23:35:17.531Z,14.86
2023-05-19T23:40:21.360Z,14.92
2023-05-19T23:45:24.803Z,15.03
2023-05-19T23:50:27.823Z,14.18
2023-05-19T23:55:31.539Z,13.86
